Time;durP1;ratioP1;P1;durP2;ratioP2;P2;SDS_P1;SDS_P2;PMS_P1;PMS_P2;Temp;Humidity;BMP_temperature;BMP_pressure;BME280_temperature;BME280_humidity;BME280_pressure;Samples;Min_cycle;Max_cycle;Signal;HPM_P1;HPM_P2
2023/01/01 00:00:41;;;;;;;21.93;19.73;;;16.70;99.90;;;;;;5092860;28;20477;-80
2023/01/01 00:03:08;;;;;;;23.50;20.97;;;16.70;99.90;;;;;;5094230;28;20465;-80
2023/01/01 00:05:38;;;;;;;24.40;21.80;;;16.70;99.90;;;;;;5092823;28;20556;-79
2023/01/01 00:08:05;;;;;;;23.00;18.63;;;16.80;99.90;;;;;;5094031;28;20491;-79
2023/01/01 00:10:34;;;;;;;27.17;18.37;;;16.70;99.90;;;;;;5093389;28;20560;-77
2023/01/01 00:13:03;;;;;;;25.33;20.47;;;16.70;99.90;;;;;;5098519;28;20534;-79
2023/01/01 00:15:30;;;;;;;66.50;32.87;;;16.70;99.90;;;;;;5093609;28;20502;-79
2023/01/01 00:17:57;;;;;;;21.83;17.60;;;16.60;99.90;;;;;;5092968;28;20461;-79
2023/01/01 00:20:27;;;;;;;95.07;58.30;;;16.60;99.90;;;;;;5093851;28;20556;-77
2023/01/01 00:22:54;;;;;;;44.77;39.43;;;16.60;99.90;;;;;;5075027;28;20450;-77
2023/01/01 00:25:31;;;;;;;24.50;19.97;;;16.60;99.90;;;;;;5092754;28;20557;-77
2023/01/01 00:28:00;;;;;;;53.50;40.10;;;16.60;99.90;;;;;;5093950;28;20464;-77
2023/01/01 00:30:27;;;;;;;26.10;23.30;;;16.60;99.90;;;;;;5093404;28;20469;-78
2023/01/01 00:32:54;;;;;;;16.37;14.63;;;16.60;99.90;;;;;;5092485;28;20481;-78
2023/01/01 00:35:22;;;;;;;13.93;11.70;;;16.60;99.90;;;;;;5092907;28;20818;-79
2023/01/01 00:37:49;;;;;;;19.13;13.80;;;16.60;99.90;;;;;;5093202;28;20844;-79
2023/01/01 00:40:19;;;;;;;21.53;16.87;;;16.60;99.90;;;;;;5093368;28;20531;-77
2023/01/01 00:42:46;;;;;;;13.57;9.87;;;16.60;99.90;;;;;;5092747;28;20523;-78
2023/01/01 00:45:15;;;;;;;11.53;8.60;;;16.60;99.90;;;;;;5093226;28;20493;-78
2023/01/01 00:47:54;;;;;;;11.13;9.70;;;16.60;99.90;;;;;;5091706;28;20496;-77
2023/01/01 00:50:22;;;;;;;11.57;8.00;;;16.70;99.90;;;;;;5092776;28;20465;-78
2023/01/01 00:52:50;;;;;;;12.73;7.50;;;16.60;99.90;;;;;;5092147;28;20462;-78
2023/01/01 00:55:21;;;;;;;8.47;6.93;;;16.60;99.90;;;;;;5092881;28;20523;-79
2023/01/01 00:57:48;;;;;;;8.40;6.83;;;16.60;99.90;;;;;;5092498;28;20763;-79
2023/01/01 01:00:17;;;;;;;12.17;7.07;;;16.70;99.90;;;;;;5093073;28;20476;-80
2023/01/01 01:02:44;;;;;;;8.50;6.53;;;16.70;99.90;;;;;;5081153;28;20921;-78
2023/01/01 01:05:13;;;;;;;6.97;6.27;;;16.70;99.90;;;;;;5092276;28;20861;-78
2023/01/01 01:07:46;;;;;;;7.63;4.80;;;16.60;99.90;;;;;;5092800;28;20465;-79
2023/01/01 01:10:13;;;;;;;6.00;5.07;;;16.60;99.90;;;;;;5092575;28;20457;-79
2023/01/01 01:12:40;;;;;;;7.60;5.50;;;16.60;99.90;;;;;;5093263;28;20526;-78
2023/01/01 01:15:08;;;;;;;8.67;5.50;;;16.70;99.90;;;;;;5092702;28;20512;-78
2023/01/01 01:17:42;;;;;;;4.40;3.97;;;16.70;99.90;;;;;;5093143;28;20552;-78
2023/01/01 01:20:13;;;;;;;5.73;5.23;;;16.70;99.90;;;;;;5092435;28;20654;-79
2023/01/01 01:22:41;;;;;;;8.63;4.53;;;16.70;99.90;;;;;;5092225;28;20548;-80
2023/01/01 01:25:12;;;;;;;8.20;4.53;;;16.70;99.90;;;;;;5072232;28;20474;-79
2023/01/01 01:27:39;;;;;;;12.80;5.40;;;16.70;99.90;;;;;;5090731;28;20986;-78
2023/01/01 01:30:12;;;;;;;5.53;4.60;;;16.70;99.90;;;;;;5107057;28;20449;-77
2023/01/01 01:32:40;;;;;;;6.13;4.20;;;16.70;99.90;;;;;;5104627;28;20473;-77
2023/01/01 01:35:08;;;;;;;8.30;5.40;;;16.70;99.90;;;;;;5103991;28;20475;-77
2023/01/01 01:37:35;;;;;;;6.90;4.77;;;16.70;99.90;;;;;;5114184;28;20483;-77
2023/01/01 01:40:02;;;;;;;5.67;5.17;;;16.70;99.90;;;;;;5106298;28;20469;-78
2023/01/01 01:42:29;;;;;;;7.80;5.03;;;16.70;99.90;;;;;;5098526;28;20510;-78
2023/01/01 01:44:59;;;;;;;5.93;4.33;;;16.60;99.90;;;;;;5093749;28;20489;-79
2023/01/01 01:47:31;;;;;;;6.47;4.70;;;16.60;99.90;;;;;;5092491;28;20667;-79
2023/01/01 01:50:04;;;;;;;6.30;5.37;;;16.60;99.90;;;;;;5092507;28;20466;-78
2023/01/01 01:52:34;;;;;;;5.53;4.93;;;16.60;99.90;;;;;;5092265;28;20540;-79
2023/01/01 01:55:07;;;;;;;5.63;4.97;;;16.60;99.90;;;;;;5092568;28;20458;-79
2023/01/01 01:57:35;;;;;;;4.63;4.20;;;16.60;99.90;;;;;;5091358;28;20525;-79
2023/01/01 02:00:03;;;;;;;6.00;4.53;;;16.60;99.90;;;;;;5092320;28;20942;-80
2023/01/01 02:02:36;;;;;;;8.40;4.63;;;16.50;99.90;;;;;;5091410;28;20553;-80
2023/01/01 02:05:06;;;;;;;5.67;4.57;;;16.60;99.90;;;;;;5092277;28;20812;-79
2023/01/01 02:07:36;;;;;;;9.30;4.83;;;16.60;99.90;;;;;;5093493;28;20832;-79
2023/01/01 02:10:05;;;;;;;6.77;5.40;;;16.60;99.90;;;;;;5098010;28;20543;-79
2023/01/01 02:12:32;;;;;;;5.73;5.20;;;16.60;99.90;;;;;;5073822;28;20461;-79
2023/01/01 02:15:00;;;;;;;5.57;4.10;;;16.70;99.90;;;;;;5100057;28;20753;-80
2023/01/01 02:17:33;;;;;;;4.97;4.17;;;16.60;99.90;;;;;;5095542;28;20549;-79
2023/01/01 02:20:19;;;;;;;6.40;4.03;;;16.60;99.90;;;;;;5096298;28;20550;-79
2023/01/01 02:23:16;;;;;;;5.47;4.47;;;16.70;99.90;;;;;;5095448;28;20532;-80
2023/01/01 02:25:57;;;;;;;5.33;4.20;;;16.70;99.90;;;;;;5079934;28;20934;-78
2023/01/01 02:28:44;;;;;;;6.13;4.07;;;16.70;99.90;;;;;;5095011;28;20545;-78
2023/01/01 02:31:15;;;;;;;4.80;4.30;;;16.70;99.90;;;;;;5095871;28;20497;-78
2023/01/01 02:33:46;;;;;;;8.40;5.30;;;16.70;99.90;;;;;;5094861;28;20476;-78
2023/01/01 02:36:14;;;;;;;6.50;4.40;;;16.70;99.90;;;;;;5096252;28;20868;-78
2023/01/01 02:38:45;;;;;;;12.60;10.20;;;16.70;99.90;;;;;;5095148;28;20487;-78
2023/01/01 02:41:19;;;;;;;12.47;8.63;;;16.70;99.90;;;;;;5095507;28;21127;-79
2023/01/01 02:43:48;;;;;;;12.13;10.43;;;16.60;99.90;;;;;;5095203;28;20450;-79
2023/01/01 02:46:15;;;;;;;10.00;5.20;;;16.70;99.90;;;;;;5095298;28;20522;-78
2023/01/01 02:48:45;;;;;;;11.13;4.53;;;16.70;99.90;;;;;;5095044;28;20503;-78
2023/01/01 02:51:31;;;;;;;9.83;7.10;;;16.70;99.90;;;;;;5084699;28;20473;-78
2023/01/01 02:54:33;;;;;;;7.90;5.37;;;16.60;99.90;;;;;;5097195;28;20445;-79
2023/01/01 02:57:07;;;;;;;6.47;4.80;;;16.60;99.90;;;;;;5095068;28;20449;-79
2023/01/01 03:02:43;;;;;;;7.23;5.43;;;16.60;99.90;;;;;;5095063;28;20599;-78
2023/01/01 03:05:17;;;;;;;8.50;5.10;;;16.60;99.90;;;;;;5085142;28;20477;-79
2023/01/01 03:07:57;;;;;;;7.80;5.47;;;16.60;99.90;;;;;;5075895;28;20489;-78
2023/01/01 03:10:33;;;;;;;10.47;6.90;;;16.50;99.90;;;;;;5078319;28;20583;-78
2023/01/01 03:13:06;;;;;;;15.37;6.00;;;16.60;99.90;;;;;;5074795;28;20855;-78
2023/01/01 03:15:48;;;;;;;5.90;5.30;;;16.50;99.90;;;;;;5074190;28;20474;-78
2023/01/01 03:18:20;;;;;;;7.73;6.77;;;16.50;99.90;;;;;;5074404;28;20466;-78
2023/01/01 03:20:57;;;;;;;9.43;6.80;;;16.40;99.90;;;;;;5073926;28;20907;-78
2023/01/01 03:23:34;;;;;;;5.43;4.87;;;16.40;99.90;;;;;;5073668;28;20469;-79
2023/01/01 03:26:07;;;;;;;6.47;4.80;;;16.40;99.90;;;;;;5074595;28;20599;-77
2023/01/01 03:28:38;;;;;;;7.97;4.30;;;16.40;99.90;;;;;;5065013;28;20473;-77
2023/01/01 03:31:07;;;;;;;7.30;4.27;;;16.40;99.90;;;;;;5073344;28;20600;-78
2023/01/01 03:33:39;;;;;;;7.90;5.17;;;16.40;99.90;;;;;;5073711;28;20498;-79
2023/01/01 03:36:13;;;;;;;9.13;4.83;;;16.40;99.90;;;;;;5089114;28;20476;-78
2023/01/01 03:38:44;;;;;;;7.67;4.30;;;16.40;99.90;;;;;;5103686;28;20808;-78
2023/01/01 03:41:15;;;;;;;8.90;5.70;;;16.40;99.90;;;;;;5093957;28;20803;-80
2023/01/01 03:43:48;;;;;;;7.37;5.50;;;16.40;99.90;;;;;;5093198;28;20530;-79
2023/01/01 03:46:20;;;;;;;7.73;4.80;;;16.40;99.90;;;;;;5094426;28;20462;-78
2023/01/01 03:48:57;;;;;;;7.30;4.23;;;16.40;99.90;;;;;;5093932;28;20473;-78
2023/01/01 03:51:29;;;;;;;6.17;4.10;;;16.40;99.90;;;;;;5094099;28;20946;-77
2023/01/01 03:54:00;;;;;;;5.60;4.50;;;16.40;99.90;;;;;;5093971;28;20541;-78
2023/01/01 03:56:37;;;;;;;5.73;4.23;;;16.40;99.90;;;;;;5084558;28;20572;-77
2023/01/01 03:59:15;;;;;;;4.23;3.83;;;16.40;99.90;;;;;;5093416;28;20464;-77
2023/01/01 04:01:48;;;;;;;4.30;3.83;;;16.40;99.90;;;;;;5093958;28;20798;-78
2023/01/01 04:04:16;;;;;;;6.30;4.23;;;16.40;99.90;;;;;;5093669;28;20465;-79
2023/01/01 04:06:46;;;;;;;11.60;5.50;;;16.40;99.90;;;;;;5093671;27;20465;-77
2023/01/01 04:09:17;;;;;;;4.87;3.60;;;16.40;99.90;;;;;;5090420;28;20476;-79
2023/01/01 04:12:07;;;;;;;11.50;5.20;;;16.30;99.90;;;;;;5093294;28;20542;-78
2023/01/01 04:14:38;;;;;;;9.40;4.60;;;16.40;99.90;;;;;;5093586;28;20473;-78
2023/01/01 04:17:10;;;;;;;6.33;3.90;;;16.30;99.90;;;;;;5093864;28;20453;-78
2023/01/01 04:19:43;;;;;;;5.30;4.40;;;16.30;99.90;;;;;;5093930;28;20476;-78
2023/01/01 04:22:10;;;;;;;7.60;4.90;;;16.30;99.90;;;;;;5093321;28;20476;-77
2023/01/01 04:24:39;;;;;;;5.10;4.63;;;16.30;99.90;;;;;;5093704;28;20534;-77
2023/01/01 04:27:06;;;;;;;5.73;4.50;;;16.30;99.90;;;;;;5084273;28;20581;-80
2023/01/01 04:29:34;;;;;;;6.67;5.37;;;16.30;99.90;;;;;;5106587;28;20534;-78
2023/01/01 04:32:02;;;;;;;8.40;5.10;;;16.40;99.90;;;;;;5099595;28;20945;-79
2023/01/01 04:34:34;;;;;;;6.90;4.57;;;16.30;99.90;;;;;;5094740;28;20462;-80
2023/01/01 04:37:01;;;;;;;7.00;4.13;;;16.30;99.90;;;;;;5094080;28;20477;-81
2023/01/01 04:39:30;;;;;;;6.23;4.93;;;16.30;99.90;;;;;;5095379;28;20470;-77
2023/01/01 04:41:58;;;;;;;7.07;4.97;;;16.30;99.90;;;;;;5094286;28;20470;-79
2023/01/01 04:44:25;;;;;;;7.93;4.50;;;16.30;99.90;;;;;;5093641;28;20453;-78
2023/01/01 04:46:52;;;;;;;5.10;4.37;;;16.30;99.90;;;;;;5094028;28;20836;-78
2023/01/01 04:49:19;;;;;;;5.53;4.30;;;16.30;99.90;;;;;;5091286;28;20473;-78
2023/01/01 04:51:47;;;;;;;6.70;4.43;;;16.30;99.90;;;;;;5093653;28;20564;-78
2023/01/01 04:54:14;;;;;;;7.47;5.17;;;16.30;99.90;;;;;;5092933;28;20802;-78
2023/01/01 04:56:41;;;;;;;6.50;4.53;;;16.30;99.90;;;;;;5093211;28;20469;-77
2023/01/01 04:59:08;;;;;;;5.80;4.87;;;16.30;99.90;;;;;;5091682;28;20473;-77
2023/01/01 05:01:35;;;;;;;7.97;4.47;;;16.20;99.90;;;;;;5095437;28;20464;-78
2023/01/01 05:04:02;;;;;;;8.50;4.47;;;16.20;99.90;;;;;;5096705;28;20501;-77
2023/01/01 05:06:29;;;;;;;7.00;5.63;;;16.10;99.90;;;;;;5092802;28;20453;-78
2023/01/01 05:09:02;;;;;;;6.30;4.80;;;16.10;99.90;;;;;;5083540;28;20982;-78
2023/01/01 05:11:54;;;;;;;7.13;4.20;;;16.10;99.90;;;;;;5093444;28;20484;-77
2023/01/01 05:14:21;;;;;;;8.03;4.90;;;16.00;99.90;;;;;;5092370;28;20507;-79
2023/01/01 05:16:48;;;;;;;5.90;4.33;;;16.10;99.90;;;;;;5092957;28;20492;-77
2023/01/01 05:19:15;;;;;;;4.40;4.00;;;16.10;99.90;;;;;;5092363;28;20462;-77
2023/01/01 05:21:42;;;;;;;4.57;4.13;;;16.10;99.90;;;;;;5092493;28;20484;-78
2023/01/01 05:24:13;;;;;;;7.77;4.03;;;16.10;99.90;;;;;;5092893;28;20564;-77
2023/01/01 05:26:42;;;;;;;5.00;4.07;;;16.10;99.90;;;;;;5092675;28;20465;-77
2023/01/01 05:29:10;;;;;;;5.03;4.30;;;16.10;99.90;;;;;;5092500;28;20497;-78
2023/01/01 05:31:37;;;;;;;10.33;5.20;;;16.10;99.90;;;;;;5092362;28;20454;-77
2023/01/01 05:34:05;;;;;;;8.70;5.30;;;16.10;99.90;;;;;;5091763;28;20501;-78
2023/01/01 05:36:34;;;;;;;4.10;3.10;;;16.10;99.90;;;;;;5092318;28;20490;-78
2023/01/01 05:39:01;;;;;;;4.93;3.67;;;16.10;99.90;;;;;;5092669;28;20489;-78
2023/01/01 05:41:30;;;;;;;6.33;3.70;;;16.10;99.90;;;;;;5093703;28;20473;-77
2023/01/01 05:43:57;;;;;;;6.30;3.90;;;16.10;99.90;;;;;;5096895;28;21015;-78
2023/01/01 05:46:25;;;;;;;4.60;3.73;;;16.10;99.90;;;;;;5095780;28;20534;-79
2023/01/01 05:49:00;;;;;;;7.50;6.70;;;16.10;99.90;;;;;;5096773;28;20501;-77
2023/01/01 05:51:31;;;;;;;5.27;4.73;;;16.00;99.90;;;;;;5085193;28;20484;-77
2023/01/01 05:54:00;;;;;;;8.27;3.90;;;16.10;99.90;;;;;;5096074;28;20813;-77
2023/01/01 05:56:31;;;;;;;6.67;3.90;;;16.00;99.90;;;;;;5096134;28;20469;-77
2023/01/01 05:58:58;;;;;;;6.90;4.30;;;16.00;99.90;;;;;;5096060;28;20500;-78
2023/01/01 06:01:27;;;;;;;6.43;3.73;;;16.00;99.90;;;;;;5096755;28;20572;-78
2023/01/01 06:03:58;;;;;;;7.30;3.97;;;16.10;99.90;;;;;;5087940;28;20860;-78
2023/01/01 06:06:27;;;;;;;5.57;3.63;;;16.00;99.90;;;;;;5096868;28;20474;-78
2023/01/01 06:08:58;;;;;;;6.00;4.23;;;16.00;99.90;;;;;;5095667;27;20821;-78
2023/01/01 06:11:25;;;;;;;6.93;3.97;;;16.00;99.90;;;;;;5095447;28;20863;-78
2023/01/01 06:13:55;;;;;;;5.07;3.90;;;16.00;99.90;;;;;;5095532;28;20501;-78
2023/01/01 06:16:23;;;;;;;4.33;3.00;;;16.00;99.90;;;;;;5095545;28;20465;-77
2023/01/01 06:18:51;;;;;;;5.37;4.40;;;16.00;99.90;;;;;;5073780;28;20542;-78
2023/01/01 06:21:21;;;;;;;9.03;4.70;;;16.00;99.90;;;;;;5093739;28;20484;-78
2023/01/01 06:23:57;;;;;;;5.00;3.77;;;16.10;99.90;;;;;;5095603;28;20469;-77
2023/01/01 06:26:27;;;;;;;5.17;3.47;;;16.00;99.90;;;;;;5095608;28;20774;-77
2023/01/01 06:28:57;;;;;;;5.77;4.93;;;16.00;99.90;;;;;;5094950;28;20596;-77
2023/01/01 06:31:25;;;;;;;6.47;3.97;;;16.00;99.90;;;;;;5095894;28;20484;-77
2023/01/01 06:33:52;;;;;;;5.87;3.10;;;15.90;99.90;;;;;;5095446;28;20829;-77
2023/01/01 06:36:20;;;;;;;4.30;3.80;;;15.90;99.90;;;;;;5084851;28;20587;-79
2023/01/01 06:38:49;;;;;;;4.20;3.00;;;15.90;99.90;;;;;;5087070;28;20477;-78
2023/01/01 06:41:20;;;;;;;4.27;3.53;;;15.90;99.90;;;;;;5095154;28;20460;-79
2023/01/01 06:43:48;;;;;;;5.73;3.83;;;15.90;99.90;;;;;;5095759;28;20530;-78
2023/01/01 06:46:18;;;;;;;4.90;3.20;;;15.90;99.90;;;;;;5086666;28;20449;-78
2023/01/01 06:48:47;;;;;;;7.27;3.30;;;15.90;99.90;;;;;;5095385;28;20552;-79
2023/01/01 06:51:18;;;;;;;3.90;3.13;;;15.90;99.90;;;;;;5094876;28;22689;-79
2023/01/01 06:53:45;;;;;;;7.23;3.20;;;15.90;99.90;;;;;;5094550;28;20465;-79
2023/01/01 06:56:13;;;;;;;8.10;3.67;;;15.90;99.90;;;;;;5075200;28;20470;-78
2023/01/01 06:58:58;;;;;;;4.50;3.77;;;15.90;99.90;;;;;;5094752;28;20536;-79
2023/01/01 07:01:28;;;;;;;4.43;3.30;;;15.90;99.90;;;;;;5094885;28;20462;-78
2023/01/01 07:03:57;;;;;;;8.40;3.73;;;15.90;99.90;;;;;;5095238;28;20544;-78
2023/01/01 07:06:30;;;;;;;3.93;3.40;;;15.90;99.90;;;;;;5083870;28;20532;-78
2023/01/01 07:08:57;;;;;;;7.83;4.40;;;15.90;99.90;;;;;;5094712;28;20461;-78
2023/01/01 07:11:32;;;;;;;7.23;3.37;;;15.90;99.90;;;;;;5082676;28;20571;-78
2023/01/01 07:14:10;;;;;;;7.47;4.40;;;15.80;99.90;;;;;;5094011;28;20472;-78
2023/01/01 07:16:42;;;;;;;3.30;3.00;;;15.90;99.90;;;;;;5093468;28;20468;-78
2023/01/01 07:19:09;;;;;;;7.70;3.37;;;15.90;99.90;;;;;;5083552;28;20469;-78
2023/01/01 07:21:42;;;;;;;7.10;4.10;;;15.90;99.90;;;;;;5094303;28;20533;-78
2023/01/01 07:24:11;;;;;;;6.10;4.13;;;15.90;99.90;;;;;;5097316;28;20510;-79
2023/01/01 07:26:40;;;;;;;6.83;6.23;;;15.90;99.90;;;;;;5095061;28;20526;-77
2023/01/01 07:29:08;;;;;;;6.47;3.40;;;15.90;99.90;;;;;;5083807;28;20973;-77
2023/01/01 07:31:49;;;;;;;5.50;3.50;;;15.90;99.90;;;;;;5084436;28;20461;-77
2023/01/01 07:34:22;;;;;;;5.57;5.03;;;15.90;99.90;;;;;;5084711;28;20776;-77
2023/01/01 07:36:49;;;;;;;7.83;3.90;;;15.90;99.90;;;;;;5087086;28;20527;-78
2023/01/01 07:39:16;;;;;;;5.00;3.70;;;15.90;99.90;;;;;;5093840;28;20474;-78
2023/01/01 07:41:45;;;;;;;10.03;5.37;;;15.90;99.90;;;;;;5094403;28;20504;-78
2023/01/01 07:44:12;;;;;;;9.30;4.80;;;15.90;99.90;;;;;;5084297;28;20461;-78
2023/01/01 07:46:40;;;;;;;4.33;3.93;;;15.90;99.90;;;;;;5094937;28;20756;-79
2023/01/01 07:49:07;;;;;;;6.53;3.90;;;15.90;99.90;;;;;;5094062;28;20470;-79
2023/01/01 07:51:36;;;;;;;4.93;3.63;;;16.00;99.90;;;;;;5093764;28;20457;-79
2023/01/01 07:54:11;;;;;;;6.00;4.43;;;15.90;99.90;;;;;;5094107;28;20944;-79
2023/01/01 07:56:38;;;;;;;4.53;3.97;;;15.90;99.90;;;;;;5069922;28;20475;-79
2023/01/01 07:59:05;;;;;;;6.40;3.63;;;15.90;99.90;;;;;;5096003;28;20493;-79
2023/01/01 08:01:35;;;;;;;3.77;3.37;;;15.90;99.90;;;;;;5094213;28;20557;-78
2023/01/01 08:04:04;;;;;;;4.50;4.10;;;15.90;99.90;;;;;;5095905;28;20465;-78
2023/01/01 08:06:31;;;;;;;4.13;3.73;;;15.90;99.90;;;;;;5095626;28;20465;-79
2023/01/01 08:11:47;;;;;;;8.10;5.17;;;16.00;99.90;;;;;;5092757;28;20947;-78
2023/01/01 08:14:14;;;;;;;6.40;4.27;;;15.90;99.90;;;;;;5095310;28;20544;-79
2023/01/01 08:16:41;;;;;;;4.60;3.80;;;15.90;99.90;;;;;;5094826;28;20528;-79
2023/01/01 08:19:11;;;;;;;4.40;3.70;;;16.00;99.90;;;;;;5095923;28;20465;-79
2023/01/01 08:21:38;;;;;;;8.50;3.93;;;16.00;99.90;;;;;;5094765;28;20829;-79
2023/01/01 08:24:06;;;;;;;4.60;4.13;;;15.90;99.90;;;;;;5095151;28;20457;-80
2023/01/01 08:26:35;;;;;;;5.97;3.80;;;15.90;99.90;;;;;;5093872;28;20966;-79
2023/01/01 08:29:06;;;;;;;4.60;3.57;;;15.90;99.90;;;;;;5094776;28;20852;-76
2023/01/01 08:31:35;;;;;;;4.17;3.60;;;16.00;99.90;;;;;;5093381;28;20578;-77
2023/01/01 08:34:02;;;;;;;5.07;3.93;;;16.00;99.90;;;;;;5094421;28;20959;-76
2023/01/01 08:36:31;;;;;;;6.73;4.17;;;16.00;99.90;;;;;;5093637;28;20477;-78
2023/01/01 08:39:00;;;;;;;8.40;4.93;;;16.00;99.90;;;;;;5094233;28;21016;-79
2023/01/01 08:41:27;;;;;;;6.47;3.80;;;16.00;99.90;;;;;;5085008;28;20461;-78
2023/01/01 08:43:55;;;;;;;5.30;4.37;;;16.00;99.90;;;;;;5093392;28;20465;-78
2023/01/01 08:46:22;;;;;;;4.77;4.30;;;16.00;99.90;;;;;;5093019;28;20526;-77
2023/01/01 08:48:49;;;;;;;4.60;4.03;;;16.00;99.90;;;;;;5093300;28;20907;-78
2023/01/01 08:51:16;;;;;;;6.80;4.73;;;16.00;99.90;;;;;;5093988;28;20470;-78
2023/01/01 08:53:47;;;;;;;9.23;4.37;;;16.10;99.90;;;;;;5093119;28;20465;-78
2023/01/01 08:56:15;;;;;;;6.17;5.23;;;16.10;99.90;;;;;;5093539;28;20544;-78
2023/01/01 08:58:43;;;;;;;5.20;3.90;;;16.10;99.90;;;;;;5092477;28;20501;-78
2023/01/01 09:01:13;;;;;;;5.80;4.33;;;16.10;99.90;;;;;;5077677;28;20577;-78
2023/01/01 09:03:40;;;;;;;5.77;4.27;;;16.10;99.90;;;;;;5072480;28;20504;-78
2023/01/01 09:06:07;;;;;;;5.27;4.30;;;16.10;99.90;;;;;;5073084;28;20523;-78
2023/01/01 09:08:34;;;;;;;8.57;6.43;;;16.10;99.90;;;;;;5072753;28;20490;-78
2023/01/01 09:11:03;;;;;;;10.50;5.10;;;16.10;99.90;;;;;;5072800;28;20474;-77
2023/01/01 09:13:31;;;;;;;11.23;6.70;;;16.10;99.90;;;;;;5072063;28;20480;-78
2023/01/01 09:15:58;;;;;;;4.03;3.60;;;16.10;99.90;;;;;;5072279;28;20538;-77
2023/01/01 09:18:25;;;;;;;4.53;4.03;;;16.10;99.90;;;;;;5072847;28;20470;-78
2023/01/01 09:20:52;;;;;;;5.73;4.10;;;16.00;99.90;;;;;;5061779;28;20506;-78
2023/01/01 09:23:20;;;;;;;7.03;4.13;;;16.00;99.90;;;;;;5072441;28;20474;-77
2023/01/01 09:25:49;;;;;;;5.80;4.40;;;16.10;99.90;;;;;;5061733;28;20502;-78
2023/01/01 09:28:17;;;;;;;5.23;4.00;;;16.10;99.90;;;;;;5072471;28;20454;-77
2023/01/01 09:30:44;;;;;;;6.77;4.87;;;16.20;99.90;;;;;;5071613;28;20505;-77
2023/01/01 09:33:14;;;;;;;6.60;4.27;;;16.20;99.90;;;;;;5072299;28;20502;-78
2023/01/01 09:35:43;;;;;;;14.47;5.13;;;16.20;99.90;;;;;;5062050;28;20525;-78
2023/01/01 09:38:10;;;;;;;6.97;3.87;;;16.20;99.90;;;;;;5072254;28;20478;-78
2023/01/01 09:40:52;;;;;;;8.60;4.50;;;16.20;99.90;;;;;;5071986;28;20489;-77
2023/01/01 09:43:37;;;;;;;5.00;3.70;;;16.20;99.90;;;;;;5071583;28;20474;-77
2023/01/01 09:46:07;;;;;;;4.33;3.40;;;16.20;99.90;;;;;;5072651;28;20488;-77
2023/01/01 09:48:39;;;;;;;4.80;4.27;;;16.20;99.90;;;;;;5071796;28;20478;-77
2023/01/01 09:51:15;;;;;;;6.53;4.23;;;16.30;99.90;;;;;;5072919;28;20466;-79
2023/01/01 09:53:47;;;;;;;4.30;3.90;;;16.30;99.90;;;;;;5071481;28;20871;-78
2023/01/01 09:56:19;;;;;;;3.67;3.23;;;16.30;99.90;;;;;;5072231;28;20502;-78
2023/01/01 09:58:47;;;;;;;5.50;4.40;;;16.30;99.90;;;;;;5071240;28;20458;-79
2023/01/01 10:01:33;;;;;;;5.37;4.17;;;16.30;99.90;;;;;;5072039;28;20535;-78
2023/01/01 10:04:10;;;;;;;3.63;3.33;;;16.40;99.90;;;;;;5072752;28;20952;-79
2023/01/01 10:06:44;;;;;;;3.93;3.47;;;16.40;99.90;;;;;;5069522;28;20478;-79
2023/01/01 10:09:21;;;;;;;7.00;4.40;;;16.40;99.90;;;;;;5071968;28;20499;-78
2023/01/01 10:11:55;;;;;;;4.47;3.63;;;16.40;99.90;;;;;;5072646;28;20889;-77
2023/01/01 10:14:30;;;;;;;7.97;3.80;;;16.50;99.90;;;;;;5071206;28;20469;-77
2023/01/01 10:17:02;;;;;;;3.90;3.23;;;16.50;99.90;;;;;;5071687;28;20516;-79
2023/01/01 10:19:35;;;;;;;4.63;4.23;;;16.50;99.90;;;;;;5071851;28;20493;-79
2023/01/01 10:22:07;;;;;;;7.20;5.53;;;16.60;99.90;;;;;;5072058;28;20459;-78
2023/01/01 10:24:43;;;;;;;10.60;6.00;;;16.60;99.90;;;;;;5070788;28;20944;-79
2023/01/01 10:27:28;;;;;;;7.90;5.80;;;16.70;99.90;;;;;;5071161;28;20477;-79
2023/01/01 10:29:59;;;;;;;7.27;4.10;;;16.70;99.90;;;;;;5075598;28;20569;-79
2023/01/01 10:32:29;;;;;;;9.43;4.63;;;16.70;99.90;;;;;;5074776;28;20551;-79
2023/01/01 10:34:58;;;;;;;4.60;3.97;;;16.70;99.90;;;;;;5064293;28;20592;-78
2023/01/01 10:37:30;;;;;;;4.20;3.80;;;16.70;99.90;;;;;;5074124;28;20470;-79
2023/01/01 10:40:01;;;;;;;5.60;3.40;;;16.70;99.90;;;;;;5064251;28;20516;-78
2023/01/01 10:42:32;;;;;;;6.13;4.00;;;16.80;99.90;;;;;;5072563;28;21025;-79
2023/01/01 10:45:04;;;;;;;3.60;3.30;;;16.80;99.90;;;;;;5075956;28;20565;-78
2023/01/01 10:48:10;;;;;;;4.23;2.90;;;16.80;99.90;;;;;;5074585;28;20498;-78
2023/01/01 10:50:49;;;;;;;5.90;3.23;;;16.80;99.90;;;;;;5064443;28;20940;-78
2023/01/01 10:53:27;;;;;;;6.80;3.20;;;16.70;99.90;;;;;;5074425;28;20992;-78
2023/01/01 10:56:10;;;;;;;3.20;2.90;;;16.70;99.90;;;;;;5074923;28;20586;-79
2023/01/01 10:58:47;;;;;;;3.23;2.90;;;16.70;99.90;;;;;;5063887;28;20466;-79
2023/01/01 11:01:30;;;;;;;5.20;3.90;;;16.70;99.90;;;;;;5074884;28;20466;-78
2023/01/01 11:03:59;;;;;;;5.10;3.97;;;16.80;99.90;;;;;;5075129;28;20498;-78
2023/01/01 11:06:28;;;;;;;10.60;6.40;;;16.70;99.90;;;;;;5074478;28;20501;-79
2023/01/01 11:09:02;;;;;;;8.10;5.10;;;16.80;99.90;;;;;;5065982;28;20557;-78
2023/01/01 11:11:31;;;;;;;7.70;5.77;;;16.80;99.90;;;;;;5074631;28;20545;-79
2023/01/01 11:14:04;;;;;;;6.43;5.80;;;16.80;99.90;;;;;;5075337;28;20471;-79
2023/01/01 11:16:33;;;;;;;5.03;4.50;;;16.90;99.90;;;;;;5074055;28;20463;-78
2023/01/01 11:19:02;;;;;;;7.60;5.03;;;16.90;99.90;;;;;;5075396;28;20543;-78
2023/01/01 11:21:29;;;;;;;6.53;4.20;;;16.80;99.90;;;;;;5075040;28;20471;-77
2023/01/01 11:24:16;;;;;;;4.70;4.20;;;16.90;99.90;;;;;;5076147;28;20545;-78
2023/01/01 11:26:49;;;;;;;7.80;4.37;;;16.90;99.90;;;;;;5075568;28;20519;-79
2023/01/01 11:29:23;;;;;;;5.50;3.43;;;17.00;99.90;;;;;;5075552;28;20473;-77
2023/01/01 11:31:53;;;;;;;6.53;4.30;;;17.00;99.90;;;;;;5074199;28;20528;-77
2023/01/01 11:34:36;;;;;;;5.73;3.83;;;16.90;99.90;;;;;;5074548;28;20467;-77
2023/01/01 11:37:15;;;;;;;3.33;3.03;;;16.90;99.90;;;;;;5070051;28;20530;-77
2023/01/01 11:39:49;;;;;;;6.10;4.77;;;16.90;99.90;;;;;;5074346;28;20450;-77
2023/01/01 11:42:18;;;;;;;4.33;3.23;;;16.90;99.90;;;;;;5075895;28;20904;-77
2023/01/01 11:45:02;;;;;;;6.70;3.13;;;16.90;99.90;;;;;;5063492;28;20466;-78
2023/01/01 11:47:35;;;;;;;4.40;2.70;;;17.00;99.90;;;;;;5063030;28;20470;-78
2023/01/01 11:50:08;;;;;;;4.83;2.80;;;16.90;99.90;;;;;;5074671;28;20482;-78
2023/01/01 11:52:38;;;;;;;3.80;3.00;;;16.90;99.90;;;;;;5074414;28;20462;-78
2023/01/01 11:55:16;;;;;;;5.90;2.90;;;16.90;99.90;;;;;;5074380;28;20803;-79
2023/01/01 11:57:51;;;;;;;7.23;3.70;;;16.90;99.90;;;;;;5073925;28;20465;-77
2023/01/01 12:00:18;;;;;;;4.50;3.33;;;16.90;99.90;;;;;;5074219;28;20566;-78
2023/01/01 12:02:52;;;;;;;6.23;5.20;;;17.00;99.90;;;;;;5074093;28;20470;-79
2023/01/01 12:05:23;;;;;;;5.77;5.03;;;17.00;99.90;;;;;;5064105;28;20557;-79
2023/01/01 12:07:51;;;;;;;6.47;4.47;;;17.00;99.90;;;;;;5076163;28;20478;-79
2023/01/01 12:10:27;;;;;;;5.63;3.27;;;17.00;99.90;;;;;;5073691;28;20523;-79
2023/01/01 12:13:04;;;;;;;4.80;3.27;;;16.90;99.90;;;;;;5073935;28;20501;-78
2023/01/01 12:15:36;;;;;;;3.40;2.77;;;16.90;99.90;;;;;;5062956;28;23044;-78
2023/01/01 12:18:12;;;;;;;2.93;2.07;;;16.90;99.90;;;;;;5063668;28;20489;-78
2023/01/01 12:20:45;;;;;;;4.37;3.40;;;16.90;99.90;;;;;;5061953;28;20482;-79
2023/01/01 12:23:15;;;;;;;4.53;3.37;;;17.00;99.90;;;;;;5074469;28;20543;-78
2023/01/01 12:25:52;;;;;;;3.67;3.13;;;16.90;99.90;;;;;;5064216;28;20536;-78
2023/01/01 12:28:34;;;;;;;4.40;4.00;;;16.90;99.90;;;;;;5073950;28;20474;-77
2023/01/01 12:31:09;;;;;;;4.67;2.40;;;16.90;99.90;;;;;;5072918;28;20496;-78
2023/01/01 12:33:49;;;;;;;3.10;2.80;;;16.90;99.90;;;;;;5073263;28;20523;-78
2023/01/01 12:36:33;;;;;;;3.53;3.17;;;17.00;99.90;;;;;;5074360;28;20474;-79
2023/01/01 12:39:53;;;;;;;2.70;2.47;;;17.00;99.90;;;;;;5065444;28;20490;-78
2023/01/01 12:42:30;;;;;;;4.20;3.20;;;16.90;99.90;;;;;;5073989;28;20633;-79
2023/01/01 12:45:15;;;;;;;4.60;3.60;;;17.00;99.90;;;;;;5074119;28;20501;-78
2023/01/01 12:47:50;;;;;;;6.30;2.80;;;16.90;99.90;;;;;;5072589;28;20469;-78
2023/01/01 12:50:29;;;;;;;3.20;2.90;;;16.90;99.90;;;;;;5073004;28;20493;-79
2023/01/01 12:53:03;;;;;;;4.77;3.10;;;16.90;99.90;;;;;;5073166;28;20865;-78
2023/01/01 12:55:43;;;;;;;6.47;4.27;;;16.90;99.90;;;;;;5074703;28;20861;-78
2023/01/01 12:58:17;;;;;;;4.50;3.93;;;16.80;99.90;;;;;;5074103;28;20534;-78
2023/01/01 13:01:02;;;;;;;5.10;3.80;;;16.80;99.90;;;;;;5073061;28;20545;-78
2023/01/01 13:03:42;;;;;;;4.20;3.20;;;16.80;99.90;;;;;;5062311;28;20520;-78
2023/01/01 13:06:13;;;;;;;2.90;2.60;;;16.80;99.90;;;;;;5072416;28;20496;-79
2023/01/01 13:08:43;;;;;;;3.73;2.80;;;16.80;99.90;;;;;;5064532;28;20660;-78
2023/01/01 13:11:12;;;;;;;3.13;2.87;;;16.80;99.90;;;;;;5073546;28;20566;-79
2023/01/01 13:13:39;;;;;;;8.47;4.03;;;16.80;99.90;;;;;;5073972;28;20470;-78